Time;durP1;ratioP1;P1;durP2;ratioP2;P2;SDS_P1;SDS_P2;PMS_P1;PMS_P2;Temp;Humidity;BMP_temperature;BMP_pressure;BME280_temperature;BME280_humidity;BME280_pressure;Samples;Min_cycle;Max_cycle;Signal;HPM_P1;HPM_P2
2023/09/10 00:01:11;;;;;;;19.67;12.52;;;18.90;99.90;;;;;;4910388;29;20139;-81
2023/09/10 00:03:37;;;;;;;16.50;11.98;;;18.80;99.90;;;;;;4910710;29;20024;-80
2023/09/10 00:06:05;;;;;;;15.18;11.57;;;18.80;99.90;;;;;;4918201;29;20523;-81
2023/09/10 00:08:31;;;;;;;19.15;11.73;;;18.80;99.90;;;;;;4929838;29;20812;-79
2023/09/10 00:10:56;;;;;;;16.98;11.60;;;18.80;99.90;;;;;;4928227;29;20042;-81
2023/09/10 00:13:23;;;;;;;16.73;12.48;;;18.70;99.90;;;;;;4929509;29;20103;-80
2023/09/10 00:15:49;;;;;;;17.08;12.00;;;18.70;99.90;;;;;;4929837;29;20063;-80
2023/09/10 00:18:15;;;;;;;14.88;12.88;;;18.70;99.90;;;;;;4929608;29;20028;-79
2023/09/10 00:20:41;;;;;;;15.60;11.88;;;18.70;99.90;;;;;;4930503;29;20104;-80
2023/09/10 00:23:07;;;;;;;14.50;11.48;;;18.70;99.90;;;;;;4919463;29;20119;-81
2023/09/10 00:25:32;;;;;;;12.10;10.77;;;18.60;99.90;;;;;;4920169;29;20744;-81
2023/09/10 00:27:58;;;;;;;18.35;12.30;;;18.60;99.90;;;;;;4929214;29;20035;-80
2023/09/10 00:30:26;;;;;;;15.13;11.48;;;18.60;99.90;;;;;;4928818;29;20066;-81
2023/09/10 00:32:51;;;;;;;14.02;11.35;;;18.60;99.90;;;;;;4929671;29;20055;-80
2023/09/10 00:35:17;;;;;;;17.30;12.45;;;18.60;99.90;;;;;;4928942;29;20086;-80
2023/09/10 00:37:42;;;;;;;18.67;13.23;;;18.60;99.90;;;;;;4928128;29;20043;-81
2023/09/10 00:40:09;;;;;;;17.92;13.02;;;18.60;99.90;;;;;;4919138;29;20023;-80
2023/09/10 00:42:35;;;;;;;19.98;13.57;;;18.50;99.90;;;;;;4929587;29;20043;-80
2023/09/10 00:45:01;;;;;;;14.05;11.77;;;18.50;99.90;;;;;;4929159;29;20085;-81
2023/09/10 00:47:27;;;;;;;17.02;12.52;;;18.50;99.90;;;;;;4929082;29;20044;-81
2023/09/10 00:49:53;;;;;;;16.73;13.93;;;18.50;99.90;;;;;;4929014;29;20544;-81
2023/09/10 00:52:21;;;;;;;18.95;13.23;;;18.50;99.90;;;;;;4928504;29;20040;-80
2023/09/10 00:54:47;;;;;;;15.80;13.20;;;18.50;99.90;;;;;;4928277;29;20106;-80
2023/09/10 00:57:13;;;;;;;15.40;11.93;;;18.50;99.90;;;;;;4928615;29;20080;-81
2023/09/10 00:59:39;;;;;;;14.50;12.13;;;18.50;99.90;;;;;;4926656;29;20031;-80
2023/09/10 01:02:05;;;;;;;15.68;12.25;;;18.50;99.90;;;;;;4928613;29;20370;-80
2023/09/10 01:04:30;;;;;;;15.25;10.93;;;18.40;99.90;;;;;;4927653;29;20038;-80
2023/09/10 01:06:56;;;;;;;15.20;11.00;;;18.50;99.90;;;;;;4928584;29;20036;-80
2023/09/10 01:09:22;;;;;;;12.52;10.68;;;18.40;99.90;;;;;;4926792;29;20031;-80
2023/09/10 01:12:03;;;;;;;14.63;10.90;;;18.40;99.90;;;;;;4927845;29;20032;-80
2023/09/10 01:14:33;;;;;;;;;;;18.40;99.90;;;;;;4920606;29;20034;-80
2023/09/10 01:17:40;;;;;;;13.52;10.38;;;18.40;99.90;;;;;;4927582;29;19934;-81
2023/09/10 01:20:22;;;;;;;14.30;10.48;;;18.30;99.90;;;;;;4909632;29;20421;-80
2023/09/10 01:23:07;;;;;;;11.60;10.27;;;18.30;99.90;;;;;;4928515;29;20032;-80
2023/09/10 01:25:34;;;;;;;13.20;9.95;;;18.30;99.90;;;;;;4942369;29;20046;-80
2023/09/10 01:28:03;;;;;;;11.18;9.40;;;18.30;99.90;;;;;;4928370;29;20035;-81
2023/09/10 01:30:32;;;;;;;11.52;9.43;;;18.30;99.90;;;;;;4938224;29;20051;-80
2023/09/10 01:33:30;;;;;;;13.30;10.50;;;18.30;99.90;;;;;;4925721;29;20038;-80
2023/09/10 01:35:58;;;;;;;11.23;9.30;;;18.30;99.90;;;;;;4927335;29;20040;-80
2023/09/10 01:38:33;;;;;;;10.38;9.13;;;18.30;99.90;;;;;;4927740;29;20136;-80
2023/09/10 01:41:15;;;;;;;14.68;9.80;;;18.20;99.90;;;;;;4927485;29;20035;-80
2023/09/10 01:43:41;;;;;;;11.52;10.32;;;18.20;99.90;;;;;;4919297;29;20047;-80
2023/09/10 01:46:08;;;;;;;12.20;9.93;;;18.20;99.90;;;;;;4911791;29;20114;-80
2023/09/10 01:48:35;;;;;;;11.38;10.18;;;18.10;99.90;;;;;;4927066;29;20035;-80
2023/09/10 01:51:00;;;;;;;12.85;10.07;;;18.20;99.90;;;;;;4914689;29;20058;-80
2023/09/10 01:53:26;;;;;;;10.75;9.45;;;18.10;99.90;;;;;;4904899;29;20247;-80
2023/09/10 01:55:52;;;;;;;14.15;10.07;;;18.10;99.90;;;;;;4904834;29;20032;-80
2023/09/10 01:58:17;;;;;;;12.45;10.23;;;18.10;99.90;;;;;;4909068;29;20067;-80
2023/09/10 02:00:44;;;;;;;10.68;9.57;;;18.00;99.90;;;;;;4922831;29;20533;-81
2023/09/10 02:03:10;;;;;;;10.90;8.98;;;18.00;99.90;;;;;;4921880;29;20099;-79
2023/09/10 02:05:36;;;;;;;12.45;9.82;;;18.00;99.90;;;;;;4910042;29;20031;-80
2023/09/10 02:08:02;;;;;;;13.18;10.13;;;18.00;99.90;;;;;;4938305;29;20032;-80
2023/09/10 02:10:28;;;;;;;11.93;10.35;;;18.00;99.90;;;;;;4920706;29;20027;-80
2023/09/10 02:12:54;;;;;;;11.07;9.63;;;18.00;99.90;;;;;;4920219;29;20148;-80
2023/09/10 02:15:19;;;;;;;15.07;10.88;;;18.00;99.90;;;;;;4917646;29;20024;-80
2023/09/10 02:17:45;;;;;;;12.85;10.77;;;18.00;99.90;;;;;;4927404;29;20040;-80
2023/09/10 02:20:11;;;;;;;14.20;10.68;;;18.00;99.90;;;;;;4926029;29;20043;-80
2023/09/10 02:22:38;;;;;;;14.50;10.57;;;18.00;99.90;;;;;;4926925;29;20060;-79
2023/09/10 02:25:04;;;;;;;12.55;11.02;;;18.00;99.90;;;;;;4927182;29;20035;-79
2023/09/10 02:27:35;;;;;;;15.88;10.95;;;18.00;99.90;;;;;;4926081;29;20111;-79
2023/09/10 02:30:01;;;;;;;12.52;9.88;;;18.00;99.90;;;;;;4925825;29;20031;-80
2023/09/10 02:32:26;;;;;;;16.52;11.02;;;18.00;99.90;;;;;;4924835;29;20040;-79
2023/09/10 02:34:52;;;;;;;14.98;10.23;;;18.00;99.90;;;;;;4924334;29;20114;-79
2023/09/10 02:37:18;;;;;;;11.95;10.27;;;17.90;99.90;;;;;;4923394;29;20749;-79
2023/09/10 02:39:43;;;;;;;12.75;10.18;;;17.90;99.90;;;;;;4921700;29;20084;-80
2023/09/10 02:42:09;;;;;;;14.27;10.05;;;17.90;99.90;;;;;;4921438;29;20130;-80
2023/09/10 02:44:35;;;;;;;12.55;10.13;;;17.90;99.90;;;;;;4907177;29;20113;-80
2023/09/10 02:47:00;;;;;;;14.38;10.70;;;17.90;99.90;;;;;;4907350;29;20036;-80
2023/09/10 02:49:26;;;;;;;11.75;9.75;;;17.90;99.90;;;;;;4914099;29;20362;-80
2023/09/10 02:51:52;;;;;;;10.88;9.68;;;17.90;99.90;;;;;;4925650;29;20051;-80
2023/09/10 02:54:17;;;;;;;15.60;11.05;;;17.90;99.90;;;;;;4924009;29;20083;-80
2023/09/10 02:56:43;;;;;;;12.73;9.90;;;18.00;99.90;;;;;;4925905;29;20063;-80
2023/09/10 02:59:20;;;;;;;11.63;10.43;;;18.00;99.90;;;;;;4926563;29;20040;-81
2023/09/10 03:01:46;;;;;;;16.63;11.32;;;18.00;99.90;;;;;;4927873;29;20083;-81
2023/09/10 03:04:16;;;;;;;11.98;10.77;;;18.00;99.90;;;;;;4930382;29;20055;-81
2023/09/10 03:06:46;;;;;;;14.55;10.75;;;18.00;99.90;;;;;;4929285;29;20031;-81
2023/09/10 03:09:13;;;;;;;15.60;11.27;;;17.90;99.90;;;;;;4928187;29;20087;-81
2023/09/10 03:11:39;;;;;;;13.90;11.05;;;17.90;99.90;;;;;;4930037;29;20055;-80
2023/09/10 03:14:06;;;;;;;15.07;10.05;;;17.90;99.90;;;;;;4919395;29;20048;-81
2023/09/10 03:16:33;;;;;;;12.38;10.23;;;17.90;99.90;;;;;;4927585;29;20050;-81
2023/09/10 03:18:58;;;;;;;11.77;10.65;;;17.90;99.90;;;;;;4929846;29;20074;-81
2023/09/10 03:21:25;;;;;;;14.07;10.90;;;17.90;99.90;;;;;;4930103;29;20064;-80
2023/09/10 03:23:50;;;;;;;15.98;10.85;;;17.80;99.90;;;;;;4928537;29;20082;-80
2023/09/10 03:26:16;;;;;;;12.80;10.18;;;17.80;99.90;;;;;;4919387;29;20036;-81
2023/09/10 03:28:41;;;;;;;13.73;11.13;;;17.80;99.90;;;;;;4917617;29;20084;-81
2023/09/10 03:31:07;;;;;;;13.65;11.18;;;17.80;99.90;;;;;;4911700;29;20035;-81
2023/09/10 03:33:32;;;;;;;15.60;11.45;;;17.80;99.90;;;;;;4911336;29;20042;-81
2023/09/10 03:35:58;;;;;;;12.73;10.55;;;17.80;99.90;;;;;;4927988;29;20425;-82
2023/09/10 03:38:24;;;;;;;12.13;10.20;;;17.80;99.90;;;;;;4928195;29;20036;-81
2023/09/10 03:40:50;;;;;;;13.75;10.40;;;17.80;99.90;;;;;;4929709;29;20466;-80
2023/09/10 03:43:16;;;;;;;14.10;11.40;;;17.80;99.90;;;;;;4931084;29;20051;-81
2023/09/10 03:45:42;;;;;;;13.07;10.80;;;17.80;99.90;;;;;;4923987;29;20052;-80
2023/09/10 03:48:08;;;;;;;12.18;9.57;;;17.70;99.90;;;;;;4924739;29;20036;-81
2023/09/10 03:50:35;;;;;;;11.32;9.75;;;17.70;99.90;;;;;;4934200;29;20032;-81
2023/09/10 03:53:00;;;;;;;10.95;9.10;;;17.70;99.90;;;;;;4908649;29;20059;-81
2023/09/10 03:55:26;;;;;;;15.30;10.43;;;17.70;99.90;;;;;;4908821;29;20032;-80
2023/09/10 03:57:51;;;;;;;12.68;11.20;;;17.60;99.90;;;;;;4909623;29;20168;-80
2023/09/10 04:00:19;;;;;;;13.38;11.80;;;17.60;99.90;;;;;;4925458;29;20036;-80
2023/09/10 04:02:45;;;;;;;14.23;11.60;;;17.60;99.90;;;;;;4925870;29;20056;-81
2023/09/10 04:05:14;;;;;;;14.70;11.18;;;17.60;99.90;;;;;;4928087;29;20032;-81
2023/09/10 04:07:39;;;;;;;12.52;11.20;;;17.60;99.90;;;;;;4922556;29;20039;-81
2023/09/10 04:10:07;;;;;;;13.00;10.90;;;17.50;99.90;;;;;;4909075;29;20028;-81
2023/09/10 04:12:32;;;;;;;13.52;12.10;;;17.60;99.90;;;;;;4908494;29;20039;-81
2023/09/10 04:14:58;;;;;;;15.35;12.20;;;17.60;99.90;;;;;;4920781;29;20047;-81
2023/09/10 04:17:28;;;;;;;13.23;11.32;;;17.60;99.90;;;;;;4926670;29;20494;-81
2023/09/10 04:19:59;;;;;;;12.25;10.57;;;17.50;99.90;;;;;;4923358;29;20047;-81
2023/09/10 04:22:25;;;;;;;11.65;10.45;;;17.50;99.90;;;;;;4908781;29;20097;-80
2023/09/10 04:24:51;;;;;;;11.68;10.48;;;17.50;99.90;;;;;;4922139;29;20650;-81
2023/09/10 04:27:16;;;;;;;11.73;10.52;;;17.50;99.90;;;;;;4917847;29;20079;-81
2023/09/10 04:29:42;;;;;;;14.45;12.20;;;17.50;99.90;;;;;;4909016;29;20111;-82
2023/09/10 04:32:08;;;;;;;11.27;9.52;;;17.50;99.90;;;;;;4907215;29;20032;-81
2023/09/10 04:34:33;;;;;;;11.25;9.85;;;17.50;99.90;;;;;;4915707;29;20191;-81
2023/09/10 04:36:59;;;;;;;15.77;10.65;;;17.50;99.90;;;;;;4940207;29;20035;-81
2023/09/10 04:39:26;;;;;;;12.93;10.48;;;17.50;99.90;;;;;;4922065;29;20119;-81
2023/09/10 04:41:51;;;;;;;11.35;9.57;;;17.50;99.90;;;;;;4926716;29;20051;-81
2023/09/10 04:44:17;;;;;;;10.65;9.55;;;17.50;99.90;;;;;;4925713;29;20110;-81
2023/09/10 04:46:43;;;;;;;13.23;10.07;;;17.50;99.90;;;;;;4927377;29;20173;-82
2023/09/10 04:49:08;;;;;;;11.07;9.88;;;17.50;99.90;;;;;;4919959;29;20028;-81
2023/09/10 04:51:34;;;;;;;11.57;10.27;;;17.50;99.90;;;;;;4907793;29;20071;-81
2023/09/10 04:53:59;;;;;;;14.88;10.50;;;17.50;99.90;;;;;;4910009;29;21023;-81
2023/09/10 04:56:25;;;;;;;12.73;11.48;;;17.40;99.90;;;;;;4907455;29;20091;-81
2023/09/10 04:58:51;;;;;;;13.05;10.98;;;17.40;99.90;;;;;;4904879;29;20562;-81
2023/09/10 05:01:17;;;;;;;12.77;10.43;;;17.40;99.90;;;;;;4905729;29;20056;-81
2023/09/10 05:03:43;;;;;;;11.82;9.90;;;17.40;99.90;;;;;;4912962;29;20048;-81
2023/09/10 05:06:09;;;;;;;12.57;10.20;;;17.40;99.90;;;;;;4924363;29;20378;-81
2023/09/10 05:08:35;;;;;;;13.32;10.65;;;17.30;99.90;;;;;;4926256;29;20309;-81
2023/09/10 05:11:01;;;;;;;14.50;12.02;;;17.30;99.90;;;;;;4915564;29;20032;-80
2023/09/10 05:13:27;;;;;;;12.45;11.15;;;17.30;99.90;;;;;;4909055;29;20213;-80
2023/09/10 05:15:57;;;;;;;13.88;11.93;;;17.30;99.90;;;;;;4919251;29;20128;-80
2023/09/10 05:18:25;;;;;;;14.63;10.80;;;17.30;99.90;;;;;;4922280;29;20498;-81
2023/09/10 05:20:52;;;;;;;13.68;10.77;;;17.30;99.90;;;;;;4916994;29;20028;-81
2023/09/10 05:23:21;;;;;;;13.70;9.80;;;17.30;99.90;;;;;;4921723;29;20359;-81
2023/09/10 05:25:47;;;;;;;13.13;10.60;;;17.30;99.90;;;;;;4927985;29;20031;-81
2023/09/10 05:28:13;;;;;;;12.27;9.60;;;17.30;99.90;;;;;;4909032;29;20125;-81
2023/09/10 05:30:38;;;;;;;12.68;9.20;;;17.30;99.90;;;;;;4905499;29;20052;-81
2023/09/10 05:33:04;;;;;;;12.95;10.68;;;17.20;99.90;;;;;;4908718;29;20346;-80
2023/09/10 05:35:30;;;;;;;10.05;8.95;;;17.30;99.90;;;;;;4908590;29;20118;-81
2023/09/10 05:37:56;;;;;;;13.77;10.55;;;17.20;99.90;;;;;;4938459;29;20140;-80
2023/09/10 05:40:22;;;;;;;12.93;9.75;;;17.30;99.90;;;;;;4924443;29;20030;-81
2023/09/10 05:42:47;;;;;;;12.60;10.50;;;17.30;99.90;;;;;;4927107;29;20028;-81
2023/09/10 05:45:13;;;;;;;12.18;10.88;;;17.30;99.90;;;;;;4925755;29;20139;-80
2023/09/10 05:47:38;;;;;;;11.38;10.18;;;17.30;99.90;;;;;;4925563;29;20142;-81
2023/09/10 05:50:05;;;;;;;12.60;10.63;;;17.40;99.90;;;;;;4926773;29;20048;-81
2023/09/10 05:52:30;;;;;;;11.35;9.88;;;17.40;99.90;;;;;;4916716;29;20034;-80
2023/09/10 05:54:56;;;;;;;13.45;10.23;;;17.50;99.90;;;;;;4926077;29;20107;-80
2023/09/10 05:57:21;;;;;;;10.95;9.57;;;17.50;99.90;;;;;;4926450;29;20114;-81
2023/09/10 05:59:47;;;;;;;12.40;11.05;;;17.50;99.90;;;;;;4913765;29;20024;-82
2023/09/10 06:02:12;;;;;;;17.77;12.68;;;17.60;99.90;;;;;;4910404;29;20362;-80
2023/09/10 06:04:38;;;;;;;17.48;12.55;;;17.70;99.90;;;;;;4920137;29;20031;-81
2023/09/10 06:07:04;;;;;;;12.82;9.35;;;17.70;99.90;;;;;;4907434;29;20943;-81
2023/09/10 06:09:30;;;;;;;11.38;9.45;;;17.80;99.90;;;;;;4908048;29;20036;-81
2023/09/10 06:11:57;;;;;;;12.77;9.70;;;17.80;99.90;;;;;;4922224;29;20127;-81
2023/09/10 06:14:22;;;;;;;10.65;9.55;;;17.80;99.90;;;;;;4907966;29;20451;-81
2023/09/10 06:16:48;;;;;;;12.80;9.80;;;17.90;99.90;;;;;;4920382;29;20043;-82
2023/09/10 06:19:14;;;;;;;9.90;8.90;;;18.00;99.90;;;;;;4914221;29;20032;-81
2023/09/10 06:21:40;;;;;;;12.63;9.82;;;18.00;99.90;;;;;;4906790;29;20036;-81
2023/09/10 06:24:06;;;;;;;12.27;9.77;;;18.10;99.90;;;;;;4923897;29;20031;-82
2023/09/10 06:26:32;;;;;;;14.25;9.95;;;18.20;99.90;;;;;;4924568;29;20038;-80
2023/09/10 06:28:58;;;;;;;13.88;9.75;;;18.30;99.90;;;;;;4924537;29;20127;-82
2023/09/10 06:31:23;;;;;;;11.20;9.77;;;18.30;99.90;;;;;;4924475;29;20122;-81
2023/09/10 06:33:49;;;;;;;15.00;10.00;;;18.50;99.90;;;;;;4917729;29;20964;-82
2023/09/10 06:36:15;;;;;;;12.38;9.48;;;18.70;99.90;;;;;;4924604;29;20117;-82
2023/09/10 06:38:47;;;;;;;11.98;10.52;;;18.90;99.90;;;;;;4924043;29;20032;-81
2023/09/10 06:41:16;;;;;;;15.23;10.70;;;19.10;99.90;;;;;;4915261;29;20690;-82
2023/09/10 06:43:42;;;;;;;14.52;11.00;;;19.20;99.90;;;;;;4924721;29;20036;-84
2023/09/10 06:46:08;;;;;;;12.98;10.90;;;19.20;99.90;;;;;;4926174;29;20123;-85
2023/09/10 06:48:33;;;;;;;13.90;10.57;;;19.30;99.90;;;;;;4926892;29;20144;-85
2023/09/10 06:51:01;;;;;;;14.10;10.70;;;19.40;99.90;;;;;;4927153;29;20074;-85
2023/09/10 06:53:30;;;;;;;15.93;10.50;;;19.50;99.90;;;;;;4922649;29;20676;-87
2023/09/10 06:55:57;;;;;;;12.95;9.40;;;19.60;99.90;;;;;;4926766;29;20040;-85
2023/09/10 06:58:23;;;;;;;11.23;9.70;;;19.70;99.90;;;;;;4925252;29;20932;-86
2023/09/10 07:00:48;;;;;;;13.80;10.00;;;19.80;99.90;;;;;;4581461;29;10000181;-86
2023/09/10 07:03:14;;;;;;;12.00;9.98;;;19.90;99.90;;;;;;4924394;29;20043;-88
2023/09/10 07:05:41;;;;;;;10.95;9.82;;;20.10;99.90;;;;;;4919075;29;20024;-85
2023/09/10 07:08:08;;;;;;;12.65;10.73;;;20.30;99.90;;;;;;4916555;29;20039;-86
2023/09/10 07:10:34;;;;;;;12.93;10.63;;;20.50;99.90;;;;;;4917207;29;20671;-86
2023/09/10 07:13:07;;;;;;;13.50;10.85;;;20.70;99.90;;;;;;4924587;29;20043;-86
2023/09/10 07:15:34;;;;;;;15.35;12.38;;;20.90;99.90;;;;;;4917959;29;20051;-86
2023/09/10 07:17:59;;;;;;;16.63;12.52;;;21.20;99.90;;;;;;4917382;29;20734;-87
2023/09/10 07:20:25;;;;;;;17.42;12.60;;;21.50;99.90;;;;;;4919025;29;20083;-86
2023/09/10 07:22:50;;;;;;;13.93;11.77;;;21.90;99.90;;;;;;4925892;29;20079;-87
2023/09/10 07:25:16;;;;;;;13.73;8.90;;;22.20;99.90;;;;;;4923925;29;20038;-87
2023/09/10 07:27:41;;;;;;;11.98;9.35;;;22.40;99.90;;;;;;4920565;29;20035;-87
2023/09/10 07:30:07;;;;;;;11.77;8.85;;;22.70;99.90;;;;;;4933759;28;20490;-86
2023/09/10 07:32:33;;;;;;;13.40;9.63;;;22.70;99.90;;;;;;4915836;29;20116;-90
2023/09/10 07:34:59;;;;;;;9.73;8.57;;;22.80;99.90;;;;;;4914121;29;20087;-83
2023/09/10 07:37:24;;;;;;;11.75;8.18;;;23.10;99.90;;;;;;4923892;29;20148;-88
2023/09/10 07:39:50;;;;;;;8.93;7.65;;;23.50;99.90;;;;;;4915786;29;20097;-87
2023/09/10 07:42:16;;;;;;;10.13;7.00;;;23.80;99.90;;;;;;4909582;29;20036;-87
2023/09/10 07:44:41;;;;;;;8.93;7.20;;;24.10;99.90;;;;;;4910279;29;20032;-87
2023/09/10 07:47:08;;;;;;;10.13;7.03;;;24.50;99.90;;;;;;4924552;29;20031;-86
2023/09/10 07:49:34;;;;;;;10.48;8.02;;;25.00;99.90;;;;;;4911975;29;20051;-87
2023/09/10 07:52:03;;;;;;;8.75;7.10;;;25.60;99.90;;;;;;4915653;29;20032;-84
2023/09/10 07:54:29;;;;;;;13.20;6.45;;;26.10;99.90;;;;;;4917808;29;20086;-82
2023/09/10 07:56:55;;;;;;;11.82;6.70;;;26.90;99.90;;;;;;4923172;29;20114;-83
2023/09/10 07:59:20;;;;;;;10.05;6.90;;;27.30;99.90;;;;;;4920272;29;20032;-82
2023/09/10 08:01:46;;;;;;;10.20;6.35;;;27.70;99.90;;;;;;4921302;29;20060;-85
2023/09/10 08:04:12;;;;;;;9.10;6.72;;;28.30;99.90;;;;;;4925820;29;20095;-85
2023/09/10 08:06:37;;;;;;;10.35;7.32;;;29.20;99.90;;;;;;4928456;29;20099;-85
2023/09/10 08:09:03;;;;;;;9.73;5.57;;;30.10;99.90;;;;;;4923915;29;20293;-85
2023/09/10 08:11:29;;;;;;;11.27;6.00;;;31.10;99.90;;;;;;4924730;29;20039;-83
2023/09/10 08:13:54;;;;;;;9.02;5.53;;;32.00;99.90;;;;;;4916913;29;20058;-84
2023/09/10 08:16:20;;;;;;;8.52;5.20;;;32.70;99.90;;;;;;4925895;29;20068;-84
2023/09/10 08:18:46;;;;;;;8.90;6.05;;;33.40;98.30;;;;;;4927877;29;20106;-84
2023/09/10 08:21:11;;;;;;;10.65;5.13;;;34.10;94.40;;;;;;4928875;29;20024;-83
2023/09/10 08:23:37;;;;;;;6.82;5.05;;;34.80;94.50;;;;;;4927674;29;20035;-83
2023/09/10 08:26:03;;;;;;;7.90;6.72;;;35.10;92.30;;;;;;4928401;29;20028;-84
2023/09/10 08:28:29;;;;;;;7.57;5.50;;;35.30;89.60;;;;;;4926754;29;20039;-83
2023/09/10 08:30:54;;;;;;;8.60;4.97;;;35.40;86.40;;;;;;4927619;29;20027;-84
2023/09/10 08:33:21;;;;;;;8.40;5.03;;;35.70;83.30;;;;;;4924675;29;20039;-83
2023/09/10 08:35:49;;;;;;;10.52;5.28;;;36.40;80.50;;;;;;4914908;29;20609;-83
2023/09/10 08:38:15;;;;;;;8.75;6.88;;;37.10;77.60;;;;;;4928035;29;20122;-84
2023/09/10 08:40:56;;;;;;;12.75;4.75;;;37.80;69.40;;;;;;4928973;29;20446;-84
2023/09/10 08:43:48;;;;;;;8.40;6.45;;;38.10;70.80;;;;;;4908995;29;20041;-84
2023/09/10 08:46:14;;;;;;;7.70;4.35;;;38.40;68.80;;;;;;4921013;29;20048;-84
2023/09/10 08:48:41;;;;;;;7.43;4.93;;;38.50;70.90;;;;;;4928652;29;20561;-84
2023/09/10 08:51:12;;;;;;;8.98;5.55;;;38.80;69.60;;;;;;4925052;29;20032;-84
2023/09/10 08:53:40;;;;;;;8.07;5.13;;;39.10;65.50;;;;;;4921975;29;20152;-85
2023/09/10 08:56:07;;;;;;;5.95;4.28;;;39.40;63.80;;;;;;4910042;29;20031;-84
2023/09/10 08:58:36;;;;;;;9.07;4.60;;;39.80;60.90;;;;;;4912794;29;20028;-84
2023/09/10 09:01:03;;;;;;;7.53;4.85;;;40.20;60.90;;;;;;4920352;29;20227;-83
2023/09/10 09:03:30;;;;;;;7.00;5.80;;;40.50;63.00;;;;;;4919269;29;20125;-82
2023/09/10 09:05:58;;;;;;;8.43;4.20;;;41.00;55.80;;;;;;4917931;29;21784;-83
2023/09/10 09:08:29;;;;;;;5.72;4.10;;;40.60;58.20;;;;;;4918755;29;20035;-83
2023/09/10 09:10:56;;;;;;;7.15;4.93;;;39.90;59.70;;;;;;4921039;29;20028;-83
2023/09/10 09:13:22;;;;;;;9.82;5.97;;;39.40;58.80;;;;;;4920918;29;20126;-83
2023/09/10 09:15:48;;;;;;;8.98;5.97;;;39.00;60.60;;;;;;4921291;29;20498;-84
2023/09/10 09:18:15;;;;;;;9.57;6.53;;;38.50;60.60;;;;;;4922409;29;20036;-84
2023/09/10 09:20:45;;;;;;;8.52;5.82;;;38.50;58.70;;;;;;4920503;29;20101;-83
2023/09/10 09:23:18;;;;;;;7.65;4.13;;;38.70;62.40;;;;;;4926645;29;20051;-84
2023/09/10 09:25:44;;;;;;;9.13;5.25;;;39.10;63.80;;;;;;4926755;29;20047;-83
2023/09/10 09:28:12;;;;;;;8.10;5.55;;;39.70;61.20;;;;;;4913184;29;20499;-83
2023/09/10 09:30:38;;;;;;;10.07;5.20;;;40.00;58.10;;;;;;4923913;29;20190;-78
2023/09/10 09:33:04;;;;;;;10.80;5.38;;;40.30;57.10;;;;;;4925379;29;20158;-82
2023/09/10 09:35:32;;;;;;;13.05;5.65;;;40.30;57.90;;;;;;4926647;29;20032;-84
2023/09/10 09:38:04;;;;;;;6.65;4.90;;;40.30;56.60;;;;;;4927361;29;20085;-82
2023/09/10 09:40:30;;;;;;;9.07;5.72;;;40.40;57.80;;;;;;4926775;29;20020;-83
2023/09/10 09:42:57;;;;;;;6.53;5.03;;;40.10;54.80;;;;;;4926797;29;20101;-83
2023/09/10 09:45:23;;;;;;;6.60;5.32;;;39.80;54.90;;;;;;4909049;29;20028;-83
2023/09/10 09:47:49;;;;;;;8.82;5.78;;;39.20;55.80;;;;;;4918667;29;20472;-83
2023/09/10 09:50:14;;;;;;;11.13;4.88;;;38.60;57.10;;;;;;4927365;29;20137;-83
2023/09/10 09:52:40;;;;;;;10.45;5.07;;;38.50;60.70;;;;;;4926611;29;20043;-83
2023/09/10 09:55:07;;;;;;;8.93;5.20;;;39.00;58.00;;;;;;4925778;29;20090;-81
2023/09/10 09:57:36;;;;;;;7.03;4.97;;;39.80;56.00;;;;;;4927117;29;20816;-83
2023/09/10 10:00:09;;;;;;;8.35;4.70;;;41.10;54.60;;;;;;4926705;29;20051;-83
2023/09/10 10:02:34;;;;;;;9.52;4.47;;;42.50;54.90;;;;;;4917929;29;20132;-83
2023/09/10 10:05:00;;;;;;;11.10;4.07;;;43.70;52.50;;;;;;4920794;29;20040;-82
2023/09/10 10:07:28;;;;;;;10.40;4.13;;;44.80;46.30;;;;;;4917182;29;20185;-82
2023/09/10 10:09:53;;;;;;;7.20;4.28;;;45.40;45.40;;;;;;4923533;29;20397;-83
2023/09/10 10:12:19;;;;;;;6.93;4.22;;;45.30;44.50;;;;;;4939616;29;20047;-82
2023/09/10 10:14:47;;;;;;;9.40;4.18;;;44.00;45.60;;;;;;4924962;29;20043;-82
2023/09/10 10:17:14;;;;;;;7.18;3.90;;;42.20;47.80;;;;;;4924787;29;20110;-83
2023/09/10 10:19:41;;;;;;;7.43;3.78;;;41.70;51.60;;;;;;4921438;29;20030;-82
2023/09/10 10:22:08;;;;;;;7.55;3.70;;;41.30;48.40;;;;;;4921592;29;20141;-84
2023/09/10 10:24:35;;;;;;;9.23;3.85;;;41.60;47.60;;;;;;4925642;29;20126;-83
2023/09/10 10:27:05;;;;;;;10.70;3.72;;;41.40;48.40;;;;;;4923573;29;20031;-84
2023/09/10 10:29:32;;;;;;;9.10;3.85;;;40.90;49.60;;;;;;4917222;29;20028;-82
2023/09/10 10:32:13;;;;;;;6.90;3.40;;;40.20;47.00;;;;;;4914771;29;20455;-82
2023/09/10 10:34:47;;;;;;;6.85;3.40;;;39.70;48.40;;;;;;4925679;29;20032;-82
2023/09/10 10:37:22;;;;;;;4.55;3.33;;;40.20;49.60;;;;;;4923828;29;20099;-84
2023/09/10 10:40:10;;;;;;;8.93;3.53;;;40.20;48.90;;;;;;4926054;29;20047;-82
2023/09/10 10:43:00;;;;;;;6.95;3.40;;;38.90;47.70;;;;;;4883731;29;20032;-83
2023/09/10 10:45:26;;;;;;;5.30;3.57;;;37.30;50.20;;;;;;4925111;29;20040;-83
2023/09/10 10:47:53;;;;;;;9.90;4.20;;;35.70;54.00;;;;;;4926500;29;20111;-85
2023/09/10 10:50:26;;;;;;;8.35;3.40;;;34.90;55.70;;;;;;4928142;29;20040;-88
2023/09/10 10:52:58;;;;;;;11.93;4.10;;;34.60;56.60;;;;;;4915578;29;20024;-86
2023/09/10 10:55:25;;;;;;;8.82;3.45;;;35.20;53.90;;;;;;4917518;29;20043;-88
2023/09/10 10:57:55;;;;;;;9.13;4.00;;;35.30;53.80;;;;;;4928506;29;20061;-90
2023/09/10 11:00:22;;;;;;;6.75;3.88;;;35.10;56.20;;;;;;4912402;29;20040;-83
2023/09/10 11:03:07;;;;;;;8.32;3.97;;;36.40;56.50;;;;;;4927745;29;20075;-87
2023/09/10 11:05:51;;;;;;;7.68;3.78;;;39.20;50.80;;;;;;4926885;29;20028;-84
2023/09/10 11:08:30;;;;;;;6.10;3.38;;;41.40;45.40;;;;;;4917939;29;20054;-85
2023/09/10 11:10:57;;;;;;;8.23;3.30;;;42.00;43.50;;;;;;4907428;29;20074;-88
2023/09/10 11:13:23;;;;;;;9.25;3.33;;;41.20;43.80;;;;;;4908333;29;20021;-84
2023/09/10 11:16:03;;;;;;;8.38;3.20;;;41.30;43.80;;;;;;4907269;29;20028;-90
2023/09/10 11:18:35;;;;;;;8.15;3.30;;;41.30;43.30;;;;;;4926357;29;20536;-86
2023/09/10 11:21:12;;;;;;;9.50;3.40;;;40.70;43.30;;;;;;4927044;29;20051;-89
2023/09/10 11:23:39;;;;;;;7.22;3.33;;;40.40;44.70;;;;;;4930241;29;20051;-84
2023/09/10 11:26:14;;;;;;;6.47;3.30;;;40.10;48.10;;;;;;4922531;29;20532;-84
2023/09/10 11:28:42;;;;;;;6.45;3.30;;;39.40;46.80;;;;;;4929187;29;20039;-86
2023/09/10 11:31:33;;;;;;;8.00;3.35;;;38.60;52.40;;;;;;4929927;29;20035;-84
2023/09/10 11:34:31;;;;;;;7.85;3.20;;;38.00;49.20;;;;;;4911676;29;20404;-84
2023/09/10 11:37:04;;;;;;;6.43;3.20;;;37.40;48.10;;;;;;4923039;29;20150;-84
2023/09/10 11:39:31;;;;;;;6.15;3.28;;;37.10;54.30;;;;;;4928823;29;20042;-84
2023/09/10 11:41:59;;;;;;;8.48;3.30;;;37.00;55.60;;;;;;4929093;29;20390;-87
2023/09/10 11:44:24;;;;;;;5.28;2.97;;;36.50;50.20;;;;;;4923949;29;20035;-85
2023/09/10 11:46:53;;;;;;;8.45;3.17;;;36.20;53.20;;;;;;4929237;29;20482;-85
2023/09/10 11:49:20;;;;;;;7.32;3.03;;;36.00;49.30;;;;;;4923917;29;20065;-85
2023/09/10 11:51:47;;;;;;;8.75;3.38;;;35.60;48.80;;;;;;4930303;29;20043;-85
2023/09/10 11:54:16;;;;;;;6.75;3.30;;;35.20;48.90;;;;;;4943514;29;20039;-83
2023/09/10 11:57:01;;;;;;;6.55;2.80;;;34.50;50.10;;;;;;4925969;29;20039;-83
2023/09/10 11:59:30;;;;;;;8.75;3.50;;;34.30;51.20;;;;;;4919235;29;20423;-84
2023/09/10 12:01:56;;;;;;;5.55;2.88;;;33.80;48.80;;;;;;4927332;29;20159;-85
2023/09/10 12:04:32;;;;;;;10.80;3.30;;;33.90;56.70;;;;;;4930432;29;20047;-86
2023/09/10 12:06:58;;;;;;;7.30;2.92;;;34.40;53.40;;;;;;4925145;29;20031;-84
2023/09/10 12:09:28;;;;;;;10.30;3.08;;;34.70;54.60;;;;;;4912512;29;20091;-86
2023/09/10 12:11:55;;;;;;;6.63;3.17;;;34.50;54.20;;;;;;4919072;29;20378;-85
2023/09/10 12:14:22;;;;;;;7.10;2.85;;;34.50;51.60;;;;;;4914116;29;20104;-85
2023/09/10 12:16:48;;;;;;;5.75;3.08;;;34.50;50.50;;;;;;4914459;29;20054;-85
2023/09/10 12:19:14;;;;;;;5.88;3.08;;;34.50;56.30;;;;;;4910845;29;20034;-85
2023/09/10 12:21:41;;;;;;;7.60;3.20;;;34.50;50.20;;;;;;4922355;29;20031;-85
2023/09/10 12:24:07;;;;;;;7.47;3.33;;;34.20;52.70;;;;;;4920063;29;20066;-84
2023/09/10 12:26:32;;;;;;;6.10;3.45;;;34.00;53.10;;;;;;4911940;29;20064;-83
2023/09/10 12:28:58;;;;;;;6.28;3.50;;;33.90;54.00;;;;;;4919491;29;20106;-84
2023/09/10 12:31:24;;;;;;;7.32;3.30;;;33.70;55.10;;;;;;4920566;29;20039;-83
2023/09/10 12:33:51;;;;;;;10.63;3.28;;;33.70;54.30;;;;;;4582842;28;10000559;-81
2023/09/10 12:36:16;;;;;;;6.05;3.25;;;34.00;55.00;;;;;;4931730;29;20055;-84
2023/09/10 12:38:42;;;;;;;7.32;3.65;;;33.90;56.00;;;;;;4925232;29;20036;-84